Airfield :
LOGIN :

Register | Disclaimer

   EN    FR    IT 

 










Legend :    VFR   Marginal VFR   IFR   Intensive IFR   Very Intensive IFR
Visi :
Ceiling :
>= 8 km
>= 3000ft
5 to 8 km
1000 to 3000 ft
1500m to 5 km
500 to 1000 ft
800 to 1500m
200 to 500 ft
< 800m
< 200 ft
Symbols :   Thunderstorms  Fog  Heavy snow  Heavy precipitations  Wind > 20 kt
SIGMETs :     Misc.  Thunderstorms  Icing  Turbulence  Mountain Waves  Volcanic Ashes







- Airport Elevation : 1197 ft
- IATA code : SPM


ETAD - Spangdahlem Ab

CURRENT METAR :
  • 220556Z AUTO 00000KT 9999 CLR 14/10 A2998 RMK AO2 SLP134 T01410103 10157 20122 56004 $

EXPIRED METARs :
  • 220456Z AUTO 00000KT 9999 CLR 13/09 A2998 RMK AO2 SLP134 T01300089 $
  • 220356Z AUTO 10004KT 9999 CLR 13/09 A2998 RMK AO2 SLP132 T01280089 $

TAF TAF ETAD
Valid from the 22 at 03:00 until the 23 at 09:00 UTC


220303Z 2203/2309 VRB06KT 9999 SCT050 QNH2998INS
BECMG 2210/2211 20010G15KT 9999 BKN050 QNH2985INS
TEMPO 2213/2218 23010G20KT 8000 -TSRA BKN030CB
BECMG 2217/2218 24009KT 9999 BKN040 QNH2991INS
TEMPO 2302/2306 23010G20KT 5000 -TSRA BKN020CB TX26/2213Z TN06/2205Z LAST NO AMDS AFT 2203 NEXT 2210
No reported NOTAMs for that airfield.



MET'MAP, your aeronautical weather chart ! - Copyright ORBIFLY December 2007 - Disclaimer

ORBIFLY MET'MAP TEAM :

Programming & Development : Alexandra Zaïnal
Concept & Development : Baudouin d'Aumeries
Co-Development & Prog : Marc-Olivier Méhu
Technical & hardware support : Manuel Goepfert

Contact : metmap@orbifly.com




SOURCES & CREDITS :

   NOAA